Time;durP1;ratioP1;P1;durP2;ratioP2;P2;SDS_P1;SDS_P2;PMS_P1;PMS_P2;Temp;Humidity;BMP_temperature;BMP_pressure;BME280_temperature;BME280_humidity;BME280_pressure;Samples;Min_cycle;Max_cycle;Signal;HPM_P1;HPM_P2
2022/03/15 00:02:17;;;;;;;34.33;18.25;;;;;;;5.63;93.89;102751.50;5052749;28;20033;-75
2022/03/15 00:04:43;;;;;;;34.60;17.27;;;;;;;5.67;93.75;102748.16;5053359;28;20439;-75
2022/03/15 00:07:13;;;;;;;32.72;18.23;;;;;;;5.71;94.02;102752.56;5053210;28;20037;-75
2022/03/15 00:09:39;;;;;;;33.65;18.92;;;;;;;5.67;93.73;102749.88;5053424;28;20104;-75
2022/03/15 00:12:05;;;;;;;37.72;17.67;;;;;;;5.71;93.94;102754.28;5052444;28;20460;-75
2022/03/15 00:14:30;;;;;;;29.20;16.88;;;;;;;5.70;94.05;102758.59;5052618;28;20095;-75
2022/03/15 00:16:55;;;;;;;35.70;16.77;;;;;;;5.67;94.05;102748.16;5052892;28;20029;-75
2022/03/15 00:19:21;;;;;;;28.55;16.45;;;;;;;5.71;94.13;102749.97;5052597;28;20484;-75
2022/03/15 00:21:46;;;;;;;32.53;16.77;;;;;;;5.67;94.14;102745.56;5052720;28;20028;-75
2022/03/15 00:24:11;;;;;;;34.10;17.30;;;;;;;5.63;94.40;102741.16;5053139;28;20036;-75
2022/03/15 00:26:37;;;;;;;27.95;16.55;;;;;;;5.61;94.34;102737.63;5052776;28;20427;-75
2022/03/15 00:29:02;;;;;;;29.20;16.42;;;;;;;5.57;94.56;102730.63;5053215;28;20094;-74
2022/03/15 00:31:28;;;;;;;31.63;17.80;;;;;;;5.60;94.20;102741.06;5052383;28;20032;-75
2022/03/15 00:33:53;;;;;;;32.38;17.83;;;;;;;5.53;94.40;102746.91;5052359;28;20025;-75
2022/03/15 00:36:18;;;;;;;26.60;15.98;;;;;;;5.46;94.54;102743.28;5052911;28;20106;-74
2022/03/15 00:38:44;;;;;;;31.10;17.00;;;;;;;5.49;94.32;102745.91;5052892;28;20036;-75
2022/03/15 00:41:09;;;;;;;30.00;17.42;;;;;;;5.52;94.36;102750.31;5051863;28;20039;-75
2022/03/15 00:43:35;;;;;;;30.13;17.60;;;;;;;5.52;94.32;102752.91;5052375;28;20025;-75
2022/03/15 00:46:02;;;;;;;30.25;17.40;;;;;;;5.49;94.32;102743.31;5052358;28;20033;-75
2022/03/15 00:48:27;;;;;;;34.92;16.77;;;;;;;5.50;94.21;102739.94;5051810;28;20476;-75
2022/03/15 00:50:53;;;;;;;32.72;17.33;;;;;;;5.50;94.24;102741.66;5051458;28;20080;-75
2022/03/15 00:53:18;;;;;;;31.88;18.15;;;;;;;5.48;94.39;102733.81;5052507;28;20036;-74
2022/03/15 00:55:43;;;;;;;31.60;17.85;;;;;;;5.49;93.96;102739.88;5051957;28;20021;-75
2022/03/15 00:58:10;;;;;;;34.88;19.33;;;;;;;5.47;94.35;102731.22;5052776;28;20056;-75
2022/03/15 01:00:35;;;;;;;31.60;16.85;;;;;;;5.46;94.04;102732.03;5052654;28;20082;-75
2022/03/15 01:03:02;;;;;;;32.33;18.60;;;;;;;5.46;94.52;102726.84;5051029;28;20029;-75
2022/03/15 01:05:27;;;;;;;34.25;19.40;;;;;;;5.40;94.53;102731.03;5052053;28;20024;-75
2022/03/15 01:07:53;;;;;;;34.65;19.13;;;;;;;5.42;94.82;102731.06;5052211;28;20033;-75
2022/03/15 01:10:18;;;;;;;28.80;17.70;;;;;;;5.40;94.91;102732.75;5051357;28;20384;-75
2022/03/15 01:12:43;;;;;;;33.80;19.15;;;;;;;5.39;94.94;102731.88;5051241;28;20033;-75
2022/03/15 01:15:09;;;;;;;32.58;18.05;;;;;;;5.38;94.67;102734.41;5052512;28;20396;-75
2022/03/15 01:17:35;;;;;;;32.17;18.02;;;;;;;5.40;94.59;102738.78;5050092;28;20020;-75
2022/03/15 01:20:01;;;;;;;34.33;17.73;;;;;;;5.43;94.85;102737.09;5052332;28;20086;-75
2022/03/15 01:22:26;;;;;;;34.15;17.88;;;;;;;5.46;94.59;102734.59;5051366;28;20029;-75
2022/03/15 01:24:51;;;;;;;30.60;17.90;;;;;;;5.39;94.91;102721.53;5051268;28;20037;-75
2022/03/15 01:27:19;;;;;;;32.92;17.67;;;;;;;5.37;94.60;102719.72;5051391;28;20523;-75
2022/03/15 01:29:44;;;;;;;31.08;17.33;;;;;;;5.34;94.88;102710.16;5051222;28;20503;-75
2022/03/15 01:32:10;;;;;;;33.33;17.67;;;;;;;5.42;94.36;102712.09;5051024;28;20059;-75
2022/03/15 01:34:35;;;;;;;33.00;18.35;;;;;;;5.38;94.18;102703.38;5052331;28;20025;-75
2022/03/15 01:37:00;;;;;;;29.40;17.73;;;;;;;5.39;94.34;102707.69;5051120;28;20456;-74
2022/03/15 01:39:26;;;;;;;30.45;18.05;;;;;;;5.37;94.21;102702.50;5051129;28;20032;-75
2022/03/15 01:41:52;;;;;;;28.55;17.63;;;;;;;5.39;94.19;102702.53;5051081;28;20024;-75
2022/03/15 01:44:21;;;;;;;29.92;17.65;;;;;;;5.38;93.92;102693.03;5051103;28;20435;-74
2022/03/15 01:46:48;;;;;;;30.50;18.13;;;;;;;5.34;93.67;102694.66;5050915;28;20074;-75
2022/03/15 01:49:13;;;;;;;29.92;17.38;;;;;;;5.33;94.14;102702.34;5051370;28;20068;-75
2022/03/15 01:51:40;;;;;;;29.40;16.50;;;;;;;5.31;94.01;102699.75;5050806;28;20568;-75
2022/03/15 01:54:06;;;;;;;27.70;17.35;;;;;;;5.30;94.07;102697.13;5051766;28;20374;-74
2022/03/15 01:56:33;;;;;;;30.88;17.40;;;;;;;5.30;93.95;102699.72;5051226;28;20056;-75
2022/03/15 01:58:59;;;;;;;27.13;16.50;;;;;;;5.26;94.38;102696.13;5050728;28;20154;-75
2022/03/15 02:01:24;;;;;;;28.08;16.98;;;;;;;5.28;94.16;102688.44;5049820;28;20171;-74
2022/03/15 02:03:49;;;;;;;27.83;16.88;;;;;;;5.27;94.32;102691.88;5051311;28;20112;-74
2022/03/15 02:06:15;;;;;;;29.83;17.38;;;;;;;5.26;93.84;102687.50;5050230;28;20067;-75
2022/03/15 02:08:41;;;;;;;30.40;16.95;;;;;;;5.25;93.94;102688.34;5050613;28;20024;-75
2022/03/15 02:11:08;;;;;;;28.88;16.95;;;;;;;5.24;94.03;102694.38;5049302;28;20106;-75
2022/03/15 02:13:34;;;;;;;30.10;17.02;;;;;;;5.23;93.75;102684.81;5050265;28;20060;-75
2022/03/15 02:15:59;;;;;;;31.70;16.58;;;;;;;5.19;93.78;102685.59;5051123;28;20056;-75
2022/03/15 02:18:26;;;;;;;25.88;16.30;;;;;;;5.16;93.93;102678.63;5051363;28;20017;-75
2022/03/15 02:20:52;;;;;;;26.52;16.50;;;;;;;5.17;94.07;102677.81;5050136;28;20025;-74
2022/03/15 02:23:17;;;;;;;26.60;16.33;;;;;;;5.18;94.07;102673.50;5051253;28;20048;-74
2022/03/15 02:25:42;;;;;;;29.40;17.13;;;;;;;5.17;94.01;102662.28;5050998;28;20032;-74
2022/03/15 02:28:08;;;;;;;28.35;16.67;;;;;;;5.10;94.11;102661.25;5050437;28;20044;-74
2022/03/15 02:30:34;;;;;;;27.58;15.85;;;;;;;5.12;93.98;102669.03;5050531;28;20102;-74
2022/03/15 02:33:00;;;;;;;27.60;16.33;;;;;;;5.16;94.11;102657.94;5050583;28;20056;-75
2022/03/15 02:35:25;;;;;;;26.50;17.10;;;;;;;5.15;94.03;102659.63;5050566;28;20445;-75
2022/03/15 02:37:50;;;;;;;29.88;16.15;;;;;;;5.15;94.12;102662.22;5051267;28;20473;-75
2022/03/15 02:40:16;;;;;;;27.95;15.88;;;;;;;5.10;94.34;102653.47;5050420;28;20104;-75
2022/03/15 02:42:41;;;;;;;25.08;15.80;;;;;;;5.18;94.07;102656.28;5049766;28;20061;-75
2022/03/15 02:45:07;;;;;;;26.35;16.02;;;;;;;5.15;93.85;102663.94;5051142;28;20033;-75
2022/03/15 02:47:32;;;;;;;25.88;15.80;;;;;;;5.14;93.96;102657.91;5050306;28;20025;-75
2022/03/15 02:49:58;;;;;;;27.58;15.82;;;;;;;5.09;93.97;102648.25;5050283;28;20037;-74
2022/03/15 02:52:25;;;;;;;30.45;16.60;;;;;;;5.12;94.64;102648.34;5050542;28;20033;-75
2022/03/15 02:54:51;;;;;;;24.02;14.82;;;;;;;5.12;93.89;102648.34;5050427;28;20033;-75
2022/03/15 02:57:21;;;;;;;25.08;15.55;;;;;;;5.11;93.99;102647.47;5050735;28;20431;-74
2022/03/15 02:59:48;;;;;;;25.92;15.77;;;;;;;5.11;93.71;102637.13;5050715;28;20041;-75
2022/03/15 03:02:13;;;;;;;30.40;16.35;;;;;;;5.10;93.39;102640.56;5050018;28;20031;-74
2022/03/15 03:04:38;;;;;;;27.15;15.23;;;;;;;5.11;93.59;102633.66;5050754;28;20135;-75
2022/03/15 03:07:04;;;;;;;26.73;16.40;;;;;;;5.08;93.23;102625.81;5051223;28;20481;-75
2022/03/15 03:09:29;;;;;;;22.30;15.07;;;;;;;5.06;93.33;102620.59;5049481;28;20032;-75
2022/03/15 03:11:57;;;;;;;26.90;15.43;;;;;;;5.08;93.77;102612.91;5050778;28;20389;-75
2022/03/15 03:14:23;;;;;;;26.88;15.18;;;;;;;5.07;93.66;102621.50;5054524;28;20025;-74
2022/03/15 03:16:48;;;;;;;23.25;14.75;;;;;;;5.06;93.73;102609.38;5053444;28;20120;-75
2022/03/15 03:19:13;;;;;;;26.23;15.10;;;;;;;5.05;93.74;102618.84;5054152;28;20026;-74
2022/03/15 03:21:40;;;;;;;26.50;15.15;;;;;;;4.99;93.85;102599.72;5054241;28;20031;-74
2022/03/15 03:24:06;;;;;;;27.65;15.23;;;;;;;5.06;93.88;102606.81;5053732;28;20381;-74
2022/03/15 03:26:34;;;;;;;22.45;15.40;;;;;;;5.05;93.76;102605.94;5053656;28;20033;-74
2022/03/15 03:29:00;;;;;;;23.88;14.43;;;;;;;5.07;93.91;102603.41;5053935;28;20052;-74
2022/03/15 03:31:26;;;;;;;23.80;14.13;;;;;;;5.05;93.25;102605.06;5053436;28;20021;-74
2022/03/15 03:33:51;;;;;;;24.45;15.15;;;;;;;5.03;93.16;102598.97;5053971;28;20090;-75
2022/03/15 03:36:16;;;;;;;24.60;14.55;;;;;;;5.04;93.02;102608.50;5051979;28;20033;-74
2022/03/15 03:38:42;;;;;;;21.35;14.30;;;;;;;5.03;92.84;102601.53;5053687;28;20021;-74
2022/03/15 03:41:07;;;;;;;22.63;14.40;;;;;;;5.03;93.42;102601.53;5053304;28;20029;-74
2022/03/15 03:43:33;;;;;;;22.95;14.48;;;;;;;5.04;93.56;102605.91;5053234;28;20036;-74
2022/03/15 03:45:58;;;;;;;23.52;15.00;;;;;;;5.04;94.27;102606.78;5053825;28;20021;-74
2022/03/15 03:48:25;;;;;;;24.85;14.88;;;;;;;5.03;93.42;102596.38;5053876;28;20520;-74
2022/03/15 03:50:51;;;;;;;24.55;14.52;;;;;;;4.97;93.57;102591.03;5052732;28;20416;-74
2022/03/15 03:53:17;;;;;;;26.48;15.07;;;;;;;4.98;93.44;102600.56;5053602;28;20040;-74
2022/03/15 03:55:43;;;;;;;25.90;15.50;;;;;;;4.99;93.34;102597.13;5053184;28;20021;-74
2022/03/15 03:58:08;;;;;;;23.20;14.32;;;;;;;4.98;93.26;102592.81;5052966;28;20381;-74
2022/03/15 04:00:35;;;;;;;24.13;14.80;;;;;;;4.97;93.58;102585.88;5052947;28;20079;-74
2022/03/15 04:03:00;;;;;;;25.08;14.00;;;;;;;4.95;93.13;102590.13;5053750;28;20021;-74
2022/03/15 04:05:35;;;;;;;23.95;13.95;;;;;;;4.95;93.32;102587.56;5052714;28;20083;-74
2022/03/15 04:08:01;;;;;;;28.65;14.23;;;;;;;4.95;93.57;102590.13;5053406;28;20474;-74
2022/03/15 04:10:28;;;;;;;20.42;13.88;;;;;;;4.92;93.39;102604.72;5052449;28;20522;-74
2022/03/15 04:12:55;;;;;;;21.45;14.15;;;;;;;4.90;93.06;102606.41;5052694;28;20456;-75
2022/03/15 04:15:20;;;;;;;24.45;14.60;;;;;;;4.83;93.26;102585.50;5053334;28;20021;-75
2022/03/15 04:17:45;;;;;;;25.05;14.63;;;;;;;4.90;93.58;102593.47;5053408;28;20095;-74
2022/03/15 04:20:11;;;;;;;30.70;14.90;;;;;;;4.92;93.41;102603.84;5051851;28;20021;-74
2022/03/15 04:22:37;;;;;;;23.98;14.80;;;;;;;4.88;93.23;102608.06;5053199;28;20108;-74
2022/03/15 04:25:03;;;;;;;27.23;13.70;;;;;;;4.87;93.33;102614.06;5052447;28;20521;-74
2022/03/15 04:27:28;;;;;;;25.20;14.50;;;;;;;4.86;93.87;102607.13;5052233;28;20025;-75
2022/03/15 04:29:53;;;;;;;22.60;15.23;;;;;;;4.88;94.01;102600.31;5052460;28;20016;-74
2022/03/15 04:32:20;;;;;;;26.17;15.20;;;;;;;4.91;93.80;102608.13;5052665;28;20039;-75
2022/03/15 04:34:45;;;;;;;23.60;14.95;;;;;;;4.89;93.46;102608.91;5052632;28;20025;-75
2022/03/15 04:37:10;;;;;;;22.10;14.43;;;;;;;4.88;93.68;102612.34;5052948;28;20132;-74
2022/03/15 04:39:36;;;;;;;22.73;13.98;;;;;;;4.88;94.00;102614.94;5052024;28;20029;-74
2022/03/15 04:42:02;;;;;;;23.35;13.82;;;;;;;4.84;93.64;102601.06;5052658;28;20116;-74
2022/03/15 04:44:28;;;;;;;24.15;14.25;;;;;;;4.81;94.18;102592.34;5051897;28;20524;-75
2022/03/15 04:46:53;;;;;;;24.30;14.45;;;;;;;4.80;94.00;102594.03;5051862;28;20029;-75
2022/03/15 04:49:18;;;;;;;26.23;14.85;;;;;;;4.80;94.08;102591.44;5051918;28;20461;-75
2022/03/15 04:51:44;;;;;;;22.83;14.30;;;;;;;4.78;93.88;102585.38;5052557;28;20445;-75
2022/03/15 04:54:09;;;;;;;25.15;14.30;;;;;;;4.75;94.12;102585.28;5052299;28;20021;-75
2022/03/15 04:56:34;;;;;;;28.00;14.68;;;;;;;4.74;94.17;102578.38;5052352;28;20028;-74
2022/03/15 04:59:00;;;;;;;22.88;14.18;;;;;;;4.76;94.23;102583.56;5052753;28;20115;-75
2022/03/15 05:01:25;;;;;;;23.83;14.10;;;;;;;4.75;94.25;102582.69;5050865;28;20021;-74
2022/03/15 05:03:51;;;;;;;22.58;13.45;;;;;;;4.74;93.81;102577.47;5052455;28;20025;-75
2022/03/15 05:06:16;;;;;;;25.30;14.48;;;;;;;4.74;94.18;102580.97;5052279;28;20025;-74
2022/03/15 05:08:41;;;;;;;26.80;14.25;;;;;;;4.76;94.17;102578.41;5051409;28;20108;-75
2022/03/15 05:11:07;;;;;;;27.02;14.80;;;;;;;4.72;94.27;102569.69;5052412;28;20457;-74
2022/03/15 05:13:44;;;;;;;25.23;13.63;;;;;;;4.73;93.99;102574.03;5052006;28;20033;-74
2022/03/15 05:16:17;;;;;;;26.17;13.73;;;;;;;4.68;94.29;102566.16;5051429;28;20461;-74
2022/03/15 05:18:44;;;;;;;24.53;13.90;;;;;;;4.73;93.97;102576.59;5052110;28;20103;-75
2022/03/15 05:21:12;;;;;;;24.15;14.48;;;;;;;4.73;93.85;102574.03;5051214;28;20279;-75
2022/03/15 05:23:38;;;;;;;22.90;13.90;;;;;;;4.72;93.59;102574.00;5051429;28;20024;-75
2022/03/15 05:26:03;;;;;;;21.90;13.40;;;;;;;4.73;93.93;102576.59;5052183;28;20033;-74
2022/03/15 05:28:30;;;;;;;27.42;13.23;;;;;;;4.74;94.55;102578.38;5052085;28;20043;-75
2022/03/15 05:30:55;;;;;;;28.58;14.02;;;;;;;4.74;93.97;102567.13;5050819;28;20029;-74
2022/03/15 05:33:20;;;;;;;21.90;13.52;;;;;;;4.75;94.40;102577.53;5051768;28;20081;-75
2022/03/15 05:35:46;;;;;;;26.50;13.80;;;;;;;4.73;94.17;102555.94;5051014;28;20439;-74
2022/03/15 05:38:11;;;;;;;21.80;13.23;;;;;;;4.71;94.21;102557.63;5050776;28;20021;-74
2022/03/15 05:40:37;;;;;;;22.45;13.52;;;;;;;4.73;94.49;102552.47;5051464;28;20499;-74
2022/03/15 05:43:02;;;;;;;24.33;13.98;;;;;;;4.72;94.43;102550.75;5051631;28;20091;-74
2022/03/15 05:45:29;;;;;;;25.65;12.88;;;;;;;4.71;94.12;102552.44;5051426;28;20468;-74
2022/03/15 05:47:54;;;;;;;26.77;13.30;;;;;;;4.71;94.79;102536.94;5051217;28;20035;-74
2022/03/15 05:50:20;;;;;;;26.25;13.68;;;;;;;4.73;94.28;102539.56;5050437;28;20133;-75
2022/03/15 05:52:46;;;;;;;25.77;12.63;;;;;;;4.74;94.17;102539.63;5051341;28;20536;-74
2022/03/15 05:55:11;;;;;;;28.95;12.57;;;;;;;4.74;94.17;102542.19;5051622;28;20028;-74
2022/03/15 05:57:38;;;;;;;19.33;12.32;;;;;;;4.71;94.12;102542.13;5050533;28;20388;-74
2022/03/15 06:00:07;;;;;;;21.92;12.73;;;;;;;4.73;94.38;102539.56;5050946;28;20079;-75
2022/03/15 06:02:33;;;;;;;25.88;13.20;;;;;;;4.72;93.89;102541.28;5051048;28;20025;-74
2022/03/15 06:04:59;;;;;;;23.50;13.00;;;;;;;4.70;94.16;102532.59;5050560;28;20441;-75
2022/03/15 06:07:26;;;;;;;21.52;12.75;;;;;;;4.75;94.06;102533.59;5051182;28;20372;-74
2022/03/15 06:09:52;;;;;;;21.38;12.85;;;;;;;4.76;93.91;102526.72;5050798;28;20106;-74
2022/03/15 06:12:18;;;;;;;22.88;13.35;;;;;;;4.80;93.86;102536.31;5050769;28;20021;-74
2022/03/15 06:14:43;;;;;;;22.75;13.48;;;;;;;4.84;93.74;102539.03;5051266;28;20055;-74
2022/03/15 06:17:08;;;;;;;23.15;12.98;;;;;;;4.87;94.18;102536.53;5051673;28;20048;-74
2022/03/15 06:19:33;;;;;;;20.38;13.52;;;;;;;4.89;94.16;102536.56;5049507;28;20082;-75
2022/03/15 06:21:59;;;;;;;24.40;12.90;;;;;;;4.89;93.62;102537.44;5050893;28;20029;-74
2022/03/15 06:24:26;;;;;;;22.63;13.48;;;;;;;4.91;93.49;102534.91;5050946;28;20075;-74
2022/03/15 06:26:52;;;;;;;22.98;13.30;;;;;;;4.90;93.38;102534.03;5050202;28;20029;-74
2022/03/15 06:29:18;;;;;;;23.90;13.77;;;;;;;4.92;93.36;102540.09;5031345;28;20030;-74
2022/03/15 06:31:43;;;;;;;22.27;13.50;;;;;;;4.97;93.36;102541.94;5039373;28;20074;-74
2022/03/15 06:34:08;;;;;;;24.70;13.80;;;;;;;5.00;93.78;102544.59;5051046;28;20025;-74
2022/03/15 06:36:36;;;;;;;25.05;14.23;;;;;;;5.02;93.65;102533.47;5050885;28;20064;-75
2022/03/15 06:39:04;;;;;;;23.33;14.02;;;;;;;5.00;93.58;102529.09;5050374;28;20051;-74
2022/03/15 06:41:30;;;;;;;24.65;15.60;;;;;;;5.00;93.57;102521.34;5049881;28;20562;-75
2022/03/15 06:43:55;;;;;;;27.60;13.52;;;;;;;5.06;93.49;102534.41;5050851;28;20029;-74
2022/03/15 06:46:20;;;;;;;25.35;14.68;;;;;;;5.10;93.33;102533.66;5049972;28;20478;-74
2022/03/15 06:48:46;;;;;;;22.60;14.50;;;;;;;5.12;93.16;102524.25;5053252;28;20028;-74
2022/03/15 06:51:12;;;;;;;20.10;13.07;;;;;;;5.19;93.02;102520.97;5055199;28;20477;-74
2022/03/15 06:53:37;;;;;;;23.80;13.88;;;;;;;5.20;92.89;102512.41;5054193;28;20016;-74
2022/03/15 06:56:03;;;;;;;24.75;14.55;;;;;;;5.29;92.74;102516.91;5054600;28;20029;-74
2022/03/15 06:58:28;;;;;;;28.27;13.48;;;;;;;5.32;91.59;102523.03;5053588;28;20025;-74
2022/03/15 07:00:55;;;;;;;26.25;14.90;;;;;;;5.36;92.00;102518.81;5053579;28;20029;-74
2022/03/15 07:03:21;;;;;;;25.92;14.85;;;;;;;5.43;92.26;102514.66;5054439;28;20029;-74
2022/03/15 07:05:46;;;;;;;25.27;14.80;;;;;;;5.46;92.46;102512.16;5054409;28;20033;-74
2022/03/15 07:08:11;;;;;;;25.13;14.43;;;;;;;5.49;91.39;102515.69;5053797;28;20021;-74
2022/03/15 07:10:37;;;;;;;27.02;14.60;;;;;;;5.55;91.55;102517.56;5054444;28;20025;-74
2022/03/15 07:13:02;;;;;;;22.55;14.30;;;;;;;5.57;91.13;102513.28;5054929;28;20032;-74
2022/03/15 07:15:28;;;;;;;21.63;14.40;;;;;;;5.63;90.99;102513.44;5053619;28;20147;-74
2022/03/15 07:17:58;;;;;;;21.20;13.73;;;;;;;5.68;90.28;102517.00;5053454;28;20112;-74
2022/03/15 07:20:24;;;;;;;27.08;13.98;;;;;;;5.72;90.18;102515.34;5054435;28;20032;-74
2022/03/15 07:22:50;;;;;;;23.02;13.95;;;;;;;5.76;90.36;102514.63;5053744;28;20434;-74
2022/03/15 07:25:17;;;;;;;22.08;13.60;;;;;;;5.81;90.03;102511.25;5054247;28;20033;-74
2022/03/15 07:27:43;;;;;;;22.48;12.13;;;;;;;5.85;88.39;102504.44;5053663;28;20126;-74
2022/03/15 07:30:09;;;;;;;19.13;12.20;;;;;;;5.92;87.64;102503.75;5053781;28;20501;-74
2022/03/15 07:32:34;;;;;;;20.02;11.70;;;;;;;5.97;87.89;102503.88;5053551;28;20033;-74
2022/03/15 07:34:59;;;;;;;21.58;12.77;;;;;;;5.99;88.07;102502.22;5053904;28;20033;-74
2022/03/15 07:37:25;;;;;;;17.25;11.40;;;;;;;6.05;86.11;102507.53;5053060;28;20071;-74
2022/03/15 07:39:51;;;;;;;20.73;10.73;;;;;;;6.09;86.01;102497.25;5054082;28;20055;-75
2022/03/15 07:42:16;;;;;;;22.38;11.05;;;;;;;6.13;85.91;102495.59;5052610;28;20025;-74
2022/03/15 07:44:42;;;;;;;23.02;11.15;;;;;;;6.19;85.98;102493.16;5057018;28;20032;-75
2022/03/15 07:47:11;;;;;;;19.52;11.13;;;;;;;6.20;84.63;102497.47;5053776;28;20499;-74
2022/03/15 07:49:36;;;;;;;22.13;11.98;;;;;;;6.27;84.06;102499.34;5052239;28;20818;-75
2022/03/15 07:52:03;;;;;;;16.33;10.95;;;;;;;6.31;84.17;102500.28;5053544;28;20029;-74
2022/03/15 07:54:28;;;;;;;20.75;9.77;;;;;;;6.35;83.36;102491.75;5053597;28;20392;-74
2022/03/15 07:56:54;;;;;;;18.30;9.88;;;;;;;6.39;83.75;102488.38;5053079;28;20021;-75
2022/03/15 07:59:19;;;;;;;17.92;11.05;;;;;;;6.41;84.10;102489.28;5055514;28;20025;-75
2022/03/15 08:01:44;;;;;;;19.02;11.15;;;;;;;6.47;84.02;102491.13;5053368;28;20021;-75
2022/03/15 08:04:10;;;;;;;21.30;10.98;;;;;;;6.51;82.73;102487.75;5053160;28;20070;-75
2022/03/15 08:06:35;;;;;;;26.20;10.50;;;;;;;6.54;82.53;102482.63;5053327;28;20028;-74
2022/03/15 08:09:02;;;;;;;22.88;9.38;;;;;;;6.59;81.83;102481.00;5053379;28;20068;-75
2022/03/15 08:11:27;;;;;;;19.83;10.02;;;;;;;6.64;81.96;102478.47;5052834;28;20028;-74
2022/03/15 08:13:53;;;;;;;22.25;9.07;;;;;;;6.68;82.26;102472.53;5053316;28;20029;-74
2022/03/15 08:16:21;;;;;;;19.00;9.32;;;;;;;6.71;81.12;102470.88;5052506;28;20060;-74
2022/03/15 08:18:46;;;;;;;16.63;8.23;;;;;;;6.74;80.92;102468.34;5051808;28;20025;-74
2022/03/15 08:21:11;;;;;;;14.65;8.00;;;;;;;6.83;81.03;102475.38;5052580;28;20048;-74
2022/03/15 08:23:37;;;;;;;15.05;8.52;;;;;;;6.89;81.07;102469.44;5052546;28;20021;-74
2022/03/15 08:26:02;;;;;;;21.88;9.23;;;;;;;6.90;80.76;102460.81;5052360;28;20025;-74
2022/03/15 08:28:28;;;;;;;20.65;8.10;;;;;;;7.00;81.33;102465.34;5052613;28;20450;-74
2022/03/15 08:30:54;;;;;;;20.92;7.97;;;;;;;7.06;79.76;102460.22;5053545;28;20029;-74
2022/03/15 08:33:20;;;;;;;18.23;7.57;;;;;;;7.14;79.94;102461.25;5052362;28;20029;-74
2022/03/15 08:35:46;;;;;;;19.40;7.70;;;;;;;7.20;79.60;102461.34;5064033;28;20365;-74
2022/03/15 08:38:11;;;;;;;22.10;8.27;;;;;;;7.24;78.45;102459.66;5065475;28;20083;-75
2022/03/15 08:40:37;;;;;;;17.65;7.70;;;;;;;7.29;78.84;102452.81;5052249;28;20496;-75
2022/03/15 08:43:03;;;;;;;24.73;8.40;;;;;;;7.35;77.81;102450.31;5052156;28;20033;-75
2022/03/15 08:45:29;;;;;;;21.05;7.63;;;;;;;7.39;78.03;102452.13;5055089;28;20876;-75
2022/03/15 08:47:54;;;;;;;19.83;8.25;;;;;;;7.43;77.95;102455.66;5051714;28;20078;-74
2022/03/15 08:50:19;;;;;;;16.42;7.43;;;;;;;7.47;77.74;102439.28;5052518;28;20056;-75
2022/03/15 08:52:47;;;;;;;19.33;7.68;;;;;;;7.52;77.66;102435.03;5051440;28;20025;-74
2022/03/15 08:55:14;;;;;;;22.58;7.72;;;;;;;7.60;78.05;102443.78;5052364;28;20029;-75
2022/03/15 08:57:39;;;;;;;22.83;7.95;;;;;;;7.65;77.25;102436.94;5052492;28;20028;-75
2022/03/15 09:00:06;;;;;;;19.77;7.75;;;;;;;7.73;77.68;102439.66;5051966;28;20128;-75
2022/03/15 09:02:31;;;;;;;18.73;7.53;;;;;;;7.80;76.29;102436.28;5052152;28;20079;-75
2022/03/15 09:04:57;;;;;;;18.88;8.18;;;;;;;7.81;76.73;102435.41;5052516;28;20041;-75
2022/03/15 09:07:22;;;;;;;15.27;7.63;;;;;;;7.90;76.09;102429.47;5051616;28;20431;-75
2022/03/15 09:09:47;;;;;;;15.48;7.18;;;;;;;7.99;76.05;102432.19;5052247;28;20029;-75
2022/03/15 09:12:13;;;;;;;22.70;8.35;;;;;;;8.05;75.03;102434.88;5051954;28;20025;-75
2022/03/15 09:14:38;;;;;;;17.15;8.38;;;;;;;8.06;76.29;102421.03;5051243;28;20116;-75
2022/03/15 09:17:04;;;;;;;20.95;7.95;;;;;;;8.13;76.20;102422.84;5052551;28;20017;-75
2022/03/15 09:19:30;;;;;;;13.68;7.53;;;;;;;8.17;75.58;102432.44;5052058;28;20132;-75
2022/03/15 09:21:55;;;;;;;23.73;7.82;;;;;;;8.19;76.30;102429.84;5051414;28;20045;-75
2022/03/15 09:24:20;;;;;;;19.33;8.27;;;;;;;8.27;74.52;102429.91;5051904;28;20021;-75
2022/03/15 09:26:46;;;;;;;12.48;7.30;;;;;;;8.29;74.53;102429.09;5051962;28;20029;-75
2022/03/15 09:29:12;;;;;;;15.90;7.32;;;;;;;8.37;75.05;102431.75;5051101;28;20436;-74
2022/03/15 09:31:38;;;;;;;22.17;9.02;;;;;;;8.41;74.07;102433.59;5051648;28;20029;-75
2022/03/15 09:34:04;;;;;;;16.15;8.57;;;;;;;8.48;73.59;102434.53;5052251;28;20427;-75
2022/03/15 09:36:29;;;;;;;14.90;7.28;;;;;;;8.53;73.08;102433.69;5050851;28;20112;-75
2022/03/15 09:38:55;;;;;;;14.38;6.88;;;;;;;8.58;73.25;102431.16;5051917;28;20025;-75
2022/03/15 09:41:24;;;;;;;19.30;6.97;;;;;;;8.65;72.99;102435.56;5051629;28;20090;-75
2022/03/15 09:43:52;;;;;;;13.48;7.25;;;;;;;8.74;72.80;102435.66;5050753;28;20564;-75
2022/03/15 09:46:21;;;;;;;15.82;6.80;;;;;;;8.85;73.20;102430.56;5051646;28;20423;-75
2022/03/15 09:48:51;;;;;;;17.00;6.85;;;;;;;8.93;71.84;102430.59;5031730;28;20036;-75
2022/03/15 09:51:18;;;;;;;11.88;6.95;;;;;;;9.01;71.56;102429.81;5031598;28;20029;-75
2022/03/15 09:53:43;;;;;;;12.60;6.70;;;;;;;9.11;70.91;102425.56;5031620;28;20122;-75
2022/03/15 09:56:09;;;;;;;12.57;7.20;;;;;;;9.15;70.12;102429.94;5031066;28;20462;-75
2022/03/15 09:58:35;;;;;;;14.38;7.03;;;;;;;9.22;71.30;102430.84;5031674;28;20110;-75
2022/03/15 10:01:00;;;;;;;16.42;7.15;;;;;;;9.29;69.88;102432.66;5031726;28;20038;-75
2022/03/15 10:03:25;;;;;;;13.43;6.47;;;;;;;9.32;68.74;102424.88;5030758;28;20033;-75
2022/03/15 10:05:52;;;;;;;17.77;7.75;;;;;;;9.37;68.86;102426.63;5031486;28;20432;-75
2022/03/15 10:08:18;;;;;;;13.10;7.45;;;;;;;9.48;68.08;102413.72;5031568;28;20017;-75
2022/03/15 10:10:48;;;;;;;10.68;6.95;;;;;;;9.61;68.07;102415.53;5030373;28;20388;-75
2022/03/15 10:13:15;;;;;;;11.48;6.53;;;;;;;9.70;69.37;102416.41;5031680;28;20049;-75
2022/03/15 10:15:53;;;;;;;17.00;7.72;;;;;;;9.85;69.50;102408.69;5041546;28;20025;-75
2022/03/15 10:18:19;;;;;;;14.93;7.43;;;;;;;9.96;67.30;102412.19;5050981;28;20068;-75
2022/03/15 10:20:46;;;;;;;12.52;7.53;;;;;;;10.11;67.58;102410.53;5051178;28;20477;-75
2022/03/15 10:23:11;;;;;;;16.38;7.25;;;;;;;10.21;67.13;102407.09;5050128;28;20116;-75
2022/03/15 10:25:41;;;;;;;16.95;7.97;;;;;;;10.34;66.63;102403.69;5050529;28;20116;-75
2022/03/15 10:28:08;;;;;;;14.93;6.75;;;;;;;10.42;64.27;102399.34;5051405;28;20460;-75
2022/03/15 10:30:35;;;;;;;12.30;6.78;;;;;;;10.49;64.51;102400.22;5051216;28;20029;-75
2022/03/15 10:33:01;;;;;;;14.85;6.68;;;;;;;10.57;64.04;102395.03;5050300;28;20468;-75
2022/03/15 10:35:36;;;;;;;13.35;6.55;;;;;;;10.55;65.33;102376.75;5050932;28;20053;-75
2022/03/15 10:38:03;;;;;;;10.88;6.13;;;;;;;10.65;63.25;102385.47;5051193;28;20028;-75
2022/03/15 10:40:43;;;;;;;11.90;6.28;;;;;;;10.70;64.55;102383.75;5050463;28;20060;-75
2022/03/15 10:43:15;;;;;;;13.88;6.20;;;;;;;10.76;64.27;102378.53;5051504;28;20025;-75
2022/03/15 10:45:43;;;;;;;14.18;6.22;;;;;;;10.88;64.60;102375.91;5049728;28;20388;-75
2022/03/15 10:48:15;;;;;;;13.02;6.57;;;;;;;10.95;63.92;102372.44;5051208;28;20025;-75
2022/03/15 10:50:57;;;;;;;14.85;6.43;;;;;;;11.06;65.34;102366.34;5050716;28;20152;-75
2022/03/15 10:53:25;;;;;;;10.13;6.53;;;;;;;10.99;64.57;102368.09;5050248;28;20032;-75
2022/03/15 10:55:51;;;;;;;17.38;7.68;;;;;;;11.01;64.76;102369.81;5050943;28;20078;-75
2022/03/15 10:58:21;;;;;;;9.88;6.50;;;;;;;10.94;64.02;102360.25;5050947;28;20419;-75
2022/03/15 11:00:50;;;;;;;13.88;7.05;;;;;;;10.88;64.41;102360.25;5049540;28;20021;-74
2022/03/15 11:03:20;;;;;;;15.25;6.75;;;;;;;10.86;65.10;102359.41;5051040;28;20029;-75
2022/03/15 11:05:48;;;;;;;12.43;6.85;;;;;;;10.93;64.95;102355.91;5051008;28;20440;-75
2022/03/15 11:08:15;;;;;;;13.63;7.03;;;;;;;10.97;64.46;102348.94;5050197;28;20044;-75
2022/03/15 11:10:45;;;;;;;11.30;6.88;;;;;;;11.06;65.51;102353.28;5050630;28;20064;-75
2022/03/15 11:13:11;;;;;;;11.57;6.25;;;;;;;11.18;63.87;102348.03;5050773;28;20025;-75
2022/03/15 11:15:42;;;;;;;15.70;7.20;;;;;;;11.23;63.07;102346.28;5049842;28;20029;-75